Time;durP1;ratioP1;P1;durP2;ratioP2;P2;SDS_P1;SDS_P2;PMS_P1;PMS_P2;Temp;Humidity;BMP_temperature;BMP_pressure;BME280_temperature;BME280_humidity;BME280_pressure;Samples;Min_cycle;Max_cycle;Signal;HPM_P1;HPM_P2
2022/12/09 00:01:47;;;;;;;171.27;161.10;;;1.60;99.90;;;;;;5043297;28;20421;-63
2022/12/09 00:04:13;;;;;;;159.75;150.52;;;1.60;99.90;;;;;;5045529;28;20389;-63
2022/12/09 00:06:38;;;;;;;161.10;151.70;;;1.60;99.90;;;;;;5047801;28;20408;-63
2022/12/09 00:09:04;;;;;;;175.95;165.75;;;1.60;99.90;;;;;;5048313;28;20689;-63
2022/12/09 00:11:30;;;;;;;161.13;151.10;;;1.30;99.90;;;;;;5049016;28;20393;-63
2022/12/09 00:13:57;;;;;;;141.93;133.25;;;1.10;99.90;;;;;;5046649;28;20509;-64
2022/12/09 00:16:24;;;;;;;147.20;138.25;;;1.10;99.90;;;;;;5047104;28;20401;-64
2022/12/09 00:18:50;;;;;;;150.25;141.13;;;1.10;99.90;;;;;;5050704;28;20392;-63
2022/12/09 00:21:25;;;;;;;143.88;134.90;;;0.90;99.90;;;;;;5049788;28;20401;-63
2022/12/09 00:23:54;;;;;;;137.05;127.65;;;0.80;99.90;;;;;;5049560;28;20382;-62
2022/12/09 00:26:21;;;;;;;133.80;125.32;;;0.70;99.90;;;;;;5050090;28;20385;-64
2022/12/09 00:28:47;;;;;;;132.77;124.20;;;0.70;99.90;;;;;;5051840;28;20954;-64
2022/12/09 00:31:16;;;;;;;126.53;118.28;;;0.60;99.90;;;;;;5049297;28;20405;-64
2022/12/09 00:33:41;;;;;;;118.15;110.05;;;0.50;99.90;;;;;;5050247;28;20820;-62
2022/12/09 00:36:15;;;;;;;117.25;109.50;;;0.60;99.90;;;;;;5050709;28;20462;-62
2022/12/09 00:38:42;;;;;;;122.85;114.93;;;0.70;99.90;;;;;;5051819;28;20384;-65
2022/12/09 00:41:08;;;;;;;127.03;119.15;;;0.80;99.90;;;;;;5051980;28;20401;-63
2022/12/09 00:43:34;;;;;;;128.90;120.85;;;1.00;99.90;;;;;;5049953;28;20545;-62
2022/12/09 00:46:00;;;;;;;133.02;124.53;;;1.00;99.90;;;;;;5050227;28;20724;-62
2022/12/09 00:48:27;;;;;;;125.15;117.28;;;0.90;99.90;;;;;;5050166;28;20684;-61
2022/12/09 00:50:53;;;;;;;125.57;117.68;;;0.70;99.90;;;;;;5050597;28;20382;-62
2022/12/09 00:53:18;;;;;;;116.97;109.40;;;0.70;99.90;;;;;;5049644;28;20450;-62
2022/12/09 00:55:45;;;;;;;113.87;106.13;;;0.60;99.90;;;;;;5048665;28;20672;-63
2022/12/09 00:58:12;;;;;;;119.80;112.10;;;0.50;99.90;;;;;;5050246;28;20389;-63
2022/12/09 01:00:38;;;;;;;122.55;114.70;;;0.60;99.90;;;;;;5047509;28;20405;-62
2022/12/09 01:03:03;;;;;;;118.47;111.13;;;0.60;99.90;;;;;;5048781;28;20378;-62
2022/12/09 01:05:29;;;;;;;112.80;105.53;;;0.70;99.90;;;;;;5048974;28;20389;-63
2022/12/09 01:07:54;;;;;;;116.63;108.00;;;0.60;99.90;;;;;;5047757;28;20385;-61
2022/12/09 01:10:20;;;;;;;117.13;109.75;;;0.40;99.90;;;;;;5047094;28;20400;-62
2022/12/09 01:12:46;;;;;;;120.55;112.03;;;0.30;99.90;;;;;;5044937;28;20839;-62
2022/12/09 01:15:12;;;;;;;134.93;125.55;;;0.30;99.90;;;;;;5044642;28;20467;-62
2022/12/09 01:17:38;;;;;;;144.43;135.25;;;0.30;99.90;;;;;;5044884;28;20401;-62
2022/12/09 01:20:07;;;;;;;136.00;127.00;;;0.20;99.90;;;;;;5043796;28;20931;-62
2022/12/09 01:22:32;;;;;;;147.17;137.80;;;0.30;99.90;;;;;;5045366;28;20646;-62
2022/12/09 01:24:58;;;;;;;144.73;135.57;;;0.30;99.90;;;;;;5045608;28;20373;-62
2022/12/09 01:27:23;;;;;;;142.83;133.80;;;0.40;99.90;;;;;;5047273;28;20396;-62
2022/12/09 01:29:49;;;;;;;147.23;137.98;;;0.40;99.90;;;;;;5047267;28;20417;-62
2022/12/09 01:32:14;;;;;;;136.57;128.05;;;0.50;99.90;;;;;;5048183;28;20413;-63
2022/12/09 01:34:41;;;;;;;143.37;134.23;;;0.50;99.90;;;;;;5048732;28;20392;-63
2022/12/09 01:37:07;;;;;;;127.90;119.37;;;0.60;99.90;;;;;;5050042;28;20846;-62
2022/12/09 01:39:33;;;;;;;136.23;127.17;;;0.50;99.90;;;;;;5049967;28;20424;-62
2022/12/09 01:42:02;;;;;;;137.20;127.57;;;0.60;99.90;;;;;;5049546;28;20413;-62
2022/12/09 01:44:29;;;;;;;126.68;118.55;;;0.50;99.90;;;;;;5049080;28;20392;-62
2022/12/09 01:46:57;;;;;;;129.40;121.03;;;0.50;99.90;;;;;;5049595;28;20396;-62
2022/12/09 01:49:37;;;;;;;128.45;120.05;;;0.40;99.90;;;;;;5049052;28;20845;-63
2022/12/09 01:52:29;;;;;;;140.07;131.13;;;0.50;99.90;;;;;;5049769;28;20452;-62
2022/12/09 01:54:55;;;;;;;136.88;128.43;;;0.50;99.90;;;;;;5049007;28;20404;-62
2022/12/09 01:57:20;;;;;;;152.63;143.25;;;0.50;99.90;;;;;;5050645;28;20398;-63
2022/12/09 01:59:46;;;;;;;137.95;129.52;;;0.70;99.90;;;;;;5050104;28;20389;-62
2022/12/09 02:02:17;;;;;;;144.48;135.85;;;0.90;99.90;;;;;;5047304;28;20836;-63
2022/12/09 02:04:46;;;;;;;126.25;117.97;;;1.10;99.90;;;;;;5049714;28;20591;-62
2022/12/09 02:07:12;;;;;;;154.55;145.10;;;0.90;99.90;;;;;;5048930;28;20817;-63
2022/12/09 02:09:38;;;;;;;152.93;143.50;;;0.80;99.90;;;;;;5049368;28;20417;-63
2022/12/09 02:12:19;;;;;;;163.95;153.85;;;0.80;99.90;;;;;;5050754;28;20666;-63
2022/12/09 02:14:56;;;;;;;161.70;151.57;;;0.80;99.90;;;;;;5050442;28;20397;-62
2022/12/09 02:17:32;;;;;;;160.07;150.20;;;0.90;99.90;;;;;;5050604;28;20499;-63
2022/12/09 02:20:03;;;;;;;148.85;139.38;;;0.90;99.90;;;;;;5048841;28;20674;-63
2022/12/09 02:22:46;;;;;;;143.57;134.52;;;0.90;99.90;;;;;;5049170;28;20393;-62
2022/12/09 02:25:14;;;;;;;146.20;136.80;;;0.90;99.90;;;;;;5051376;28;20392;-63
2022/12/09 02:28:02;;;;;;;157.07;146.77;;;0.80;99.90;;;;;;5048048;28;20402;-63
2022/12/09 02:30:55;;;;;;;166.70;155.98;;;0.80;99.90;;;;;;5049018;28;20397;-63
2022/12/09 02:33:43;;;;;;;164.07;153.43;;;0.90;99.90;;;;;;5048823;28;20393;-63
2022/12/09 02:36:13;;;;;;;156.43;146.02;;;0.90;99.90;;;;;;5050334;28;20758;-63
2022/12/09 02:38:40;;;;;;;172.23;161.18;;;0.90;99.90;;;;;;5049091;28;20396;-63
2022/12/09 02:41:18;;;;;;;145.93;136.07;;;0.90;99.90;;;;;;5049180;28;20421;-63
2022/12/09 02:43:49;;;;;;;172.52;161.20;;;0.90;99.90;;;;;;5052162;28;20381;-62
2022/12/09 02:46:17;;;;;;;168.50;157.40;;;1.00;99.90;;;;;;5050195;28;20484;-63
2022/12/09 02:48:49;;;;;;;174.18;162.50;;;1.00;99.90;;;;;;5051081;28;20475;-62
2022/12/09 02:51:18;;;;;;;163.52;152.68;;;1.00;99.90;;;;;;5051634;28;20396;-62
2022/12/09 02:53:47;;;;;;;159.70;149.13;;;1.10;99.90;;;;;;5052284;28;20690;-62
2022/12/09 02:56:14;;;;;;;156.70;146.50;;;1.00;99.90;;;;;;5053057;28;20795;-62
2022/12/09 02:58:40;;;;;;;172.43;161.57;;;1.00;99.90;;;;;;5052158;28;20396;-61
2022/12/09 03:01:18;;;;;;;156.50;146.50;;;1.20;99.90;;;;;;5051691;28;20405;-62
2022/12/09 03:03:44;;;;;;;153.68;143.85;;;1.20;99.90;;;;;;5052118;28;20451;-63
2022/12/09 03:06:15;;;;;;;153.57;143.70;;;1.20;99.90;;;;;;5052248;28;20712;-63
2022/12/09 03:09:02;;;;;;;149.30;140.35;;;1.20;99.90;;;;;;5051190;28;20413;-63
2022/12/09 03:11:31;;;;;;;149.52;139.80;;;1.30;99.90;;;;;;5049320;28;20393;-62
2022/12/09 03:14:08;;;;;;;150.57;140.85;;;1.40;99.90;;;;;;5048879;28;20392;-62
2022/12/09 03:16:53;;;;;;;146.52;137.25;;;1.30;99.90;;;;;;5046119;28;20834;-63
2022/12/09 03:19:28;;;;;;;147.23;137.93;;;1.30;99.90;;;;;;5047138;28;20952;-62
2022/12/09 03:21:57;;;;;;;141.00;132.35;;;1.30;99.90;;;;;;5047566;28;20758;-62
2022/12/09 03:24:31;;;;;;;147.77;138.20;;;1.20;99.90;;;;;;5048021;28;20431;-62
2022/12/09 03:27:01;;;;;;;148.20;138.35;;;1.20;99.90;;;;;;5048236;28;20381;-61
2022/12/09 03:29:29;;;;;;;140.23;131.30;;;1.10;99.90;;;;;;5048811;28;20392;-61
2022/12/09 03:31:57;;;;;;;149.32;139.68;;;1.10;99.90;;;;;;5048946;28;20476;-61
2022/12/09 03:34:28;;;;;;;143.98;134.63;;;1.10;99.90;;;;;;5049797;28;20385;-62
2022/12/09 03:36:56;;;;;;;146.57;137.18;;;1.20;99.90;;;;;;5051294;28;20389;-62
2022/12/09 03:39:27;;;;;;;139.05;130.40;;;1.20;99.90;;;;;;5052354;28;20409;-62
2022/12/09 03:41:56;;;;;;;141.37;132.80;;;1.30;99.90;;;;;;5052967;28;20570;-62
2022/12/09 03:44:40;;;;;;;145.52;136.70;;;1.50;99.90;;;;;;5053658;28;20705;-62
2022/12/09 03:47:07;;;;;;;139.27;130.70;;;1.40;99.90;;;;;;5052289;28;20397;-61
2022/12/09 03:49:33;;;;;;;149.75;140.55;;;1.30;99.90;;;;;;5052078;28;21017;-62
2022/12/09 03:52:10;;;;;;;138.27;129.73;;;1.20;99.90;;;;;;5051993;28;20446;-62
2022/12/09 03:54:49;;;;;;;149.48;140.30;;;1.20;99.90;;;;;;5050147;28;20400;-62
2022/12/09 03:57:17;;;;;;;138.88;130.75;;;1.20;99.90;;;;;;5051511;28;20392;-61
2022/12/09 03:59:49;;;;;;;151.50;142.65;;;1.30;99.90;;;;;;5051330;28;20928;-62
2022/12/09 04:02:15;;;;;;;151.23;141.93;;;1.40;99.90;;;;;;5049492;28;20424;-62
2022/12/09 04:04:41;;;;;;;143.50;134.60;;;1.30;99.90;;;;;;5050397;28;20674;-63
2022/12/09 04:07:08;;;;;;;138.65;130.27;;;1.30;99.90;;;;;;5049593;28;20389;-63
2022/12/09 04:09:34;;;;;;;138.53;130.33;;;1.30;99.90;;;;;;5050555;28;20385;-63
2022/12/09 04:11:59;;;;;;;153.18;143.68;;;1.40;99.90;;;;;;5050994;28;20381;-62
2022/12/09 04:14:25;;;;;;;144.97;136.47;;;1.50;99.90;;;;;;5049411;28;20886;-62
2022/12/09 04:16:50;;;;;;;149.20;139.83;;;1.50;99.90;;;;;;5049577;28;20749;-63
2022/12/09 04:19:16;;;;;;;160.43;150.90;;;1.50;99.90;;;;;;5048139;28;20394;-63
2022/12/09 04:21:42;;;;;;;159.32;149.70;;;1.50;99.90;;;;;;5048327;28;20401;-63
2022/12/09 04:24:07;;;;;;;153.02;143.50;;;1.50;99.90;;;;;;5048531;28;20461;-63
2022/12/09 04:26:33;;;;;;;161.05;151.48;;;1.50;99.90;;;;;;5048002;28;20840;-63
2022/12/09 04:28:59;;;;;;;162.70;153.15;;;1.50;99.90;;;;;;5047468;28;20378;-63
2022/12/09 04:31:25;;;;;;;154.32;145.15;;;1.60;99.90;;;;;;5048884;28;20446;-63
2022/12/09 04:33:51;;;;;;;166.73;156.80;;;1.60;99.90;;;;;;5050946;28;20392;-63
2022/12/09 04:36:19;;;;;;;158.20;148.53;;;1.60;99.90;;;;;;5049812;28;20404;-63
2022/12/09 04:38:45;;;;;;;154.45;145.35;;;1.70;99.90;;;;;;5047441;28;20389;-62
2022/12/09 04:41:12;;;;;;;153.77;144.95;;;1.70;99.90;;;;;;5049093;28;20436;-63
2022/12/09 04:43:39;;;;;;;159.85;150.50;;;1.60;99.90;;;;;;5048282;28;20388;-63
2022/12/09 04:46:09;;;;;;;170.63;160.68;;;1.60;99.90;;;;;;5045467;28;20389;-63
2022/12/09 04:48:35;;;;;;;156.90;147.88;;;1.70;99.90;;;;;;5046255;28;20470;-62
2022/12/09 04:51:00;;;;;;;167.97;157.93;;;1.70;99.90;;;;;;5045896;28;20400;-62
2022/12/09 04:53:29;;;;;;;166.53;156.60;;;1.60;99.90;;;;;;5045714;28;20773;-62
2022/12/09 04:55:59;;;;;;;162.80;153.25;;;1.50;99.90;;;;;;5046377;28;20447;-62
2022/12/09 04:58:25;;;;;;;159.88;150.23;;;1.40;99.90;;;;;;5046765;28;20377;-62
2022/12/09 05:00:50;;;;;;;151.73;142.40;;;1.30;99.90;;;;;;5047893;28;20487;-63
2022/12/09 05:03:16;;;;;;;153.87;144.57;;;1.20;99.90;;;;;;5047163;28;20386;-62
2022/12/09 05:05:42;;;;;;;156.50;146.80;;;1.20;99.90;;;;;;5050686;28;20385;-62
2022/12/09 05:08:07;;;;;;;155.03;145.33;;;1.20;99.90;;;;;;5050914;28;20397;-60
2022/12/09 05:10:33;;;;;;;148.52;139.52;;;1.10;99.90;;;;;;5050326;28;20403;-63
2022/12/09 05:12:58;;;;;;;147.50;138.43;;;1.00;99.90;;;;;;5049419;28;20785;-62
2022/12/09 05:15:24;;;;;;;152.97;143.47;;;1.00;99.90;;;;;;5048983;28;20389;-62
2022/12/09 05:17:49;;;;;;;148.13;138.97;;;1.00;99.90;;;;;;5048037;28;20393;-63
2022/12/09 05:20:15;;;;;;;146.50;137.68;;;1.00;99.90;;;;;;5047125;28;20425;-63
2022/12/09 05:22:40;;;;;;;152.48;143.60;;;1.00;99.90;;;;;;5048859;28;20382;-63
2022/12/09 05:25:06;;;;;;;153.00;144.00;;;1.10;99.90;;;;;;5049599;28;20408;-63
2022/12/09 05:27:32;;;;;;;159.00;149.47;;;1.20;99.90;;;;;;5049342;28;20430;-63
2022/12/09 05:29:58;;;;;;;159.07;149.70;;;1.30;99.90;;;;;;5049254;28;20381;-64
2022/12/09 05:32:23;;;;;;;161.97;152.57;;;1.30;99.90;;;;;;5049227;28;20393;-63
2022/12/09 05:34:49;;;;;;;161.30;151.87;;;1.30;99.90;;;;;;5050522;28;20685;-64
2022/12/09 05:37:15;;;;;;;156.85;147.55;;;1.40;99.90;;;;;;5050232;28;20385;-63
2022/12/09 05:39:41;;;;;;;169.27;159.47;;;1.40;99.90;;;;;;5050467;28;20501;-64
2022/12/09 05:42:06;;;;;;;157.73;148.37;;;1.50;99.90;;;;;;5051236;28;20410;-63
2022/12/09 05:44:32;;;;;;;175.43;165.33;;;1.50;99.90;;;;;;5051335;28;20443;-63
2022/12/09 05:46:57;;;;;;;168.68;158.52;;;1.50;99.90;;;;;;5050442;28;20393;-63
2022/12/09 05:49:23;;;;;;;164.63;154.82;;;1.40;99.90;;;;;;5047790;28;20385;-63
2022/12/09 05:51:48;;;;;;;162.10;152.50;;;1.40;99.90;;;;;;5047531;28;20386;-63
2022/12/09 05:54:14;;;;;;;164.00;154.00;;;1.50;99.90;;;;;;5048989;28;20428;-62
2022/12/09 05:56:40;;;;;;;166.50;156.57;;;1.40;99.90;;;;;;5046107;28;20413;-62
2022/12/09 05:59:05;;;;;;;166.33;156.37;;;1.30;99.90;;;;;;5046040;28;20457;-63
2022/12/09 06:01:31;;;;;;;156.43;147.17;;;1.20;99.90;;;;;;5044097;28;20463;-62
2022/12/09 06:03:56;;;;;;;158.45;148.82;;;1.20;99.90;;;;;;5043448;28;20670;-63
2022/12/09 06:06:25;;;;;;;161.65;152.00;;;1.20;99.90;;;;;;5045126;28;20381;-62
2022/12/09 06:08:55;;;;;;;157.07;147.55;;;1.20;99.90;;;;;;5043981;28;20381;-62
2022/12/09 06:11:21;;;;;;;156.90;147.43;;;1.20;99.90;;;;;;5044647;28;20400;-62
2022/12/09 06:13:48;;;;;;;157.03;147.63;;;1.30;99.90;;;;;;5046779;28;20401;-63
2022/12/09 06:16:17;;;;;;;157.13;147.75;;;1.30;99.90;;;;;;5044392;28;20552;-63
2022/12/09 06:18:44;;;;;;;162.98;153.38;;;1.30;99.90;;;;;;5043138;28;20954;-60
2022/12/09 06:21:12;;;;;;;150.50;141.50;;;1.40;99.90;;;;;;5043410;28;20405;-62
2022/12/09 06:23:42;;;;;;;159.60;150.00;;;1.50;99.90;;;;;;5044560;28;20460;-62
2022/12/09 06:26:15;;;;;;;153.15;144.10;;;1.30;99.90;;;;;;5046220;28;20397;-62
2022/12/09 06:28:41;;;;;;;157.30;147.63;;;1.40;99.90;;;;;;5044497;28;20369;-62
2022/12/09 06:31:06;;;;;;;156.10;146.83;;;1.40;99.90;;;;;;5044006;28;20723;-62
2022/12/09 06:33:34;;;;;;;156.33;146.80;;;1.50;99.90;;;;;;5043403;28;20619;-62
2022/12/09 06:36:01;;;;;;;157.35;148.15;;;1.50;99.90;;;;;;5043852;28;20433;-62
2022/12/09 06:38:26;;;;;;;168.40;158.50;;;1.50;99.90;;;;;;5042603;28;20454;-62
2022/12/09 06:40:52;;;;;;;156.30;146.98;;;1.60;99.90;;;;;;5043859;28;20421;-62
2022/12/09 06:43:17;;;;;;;162.77;153.07;;;1.60;99.90;;;;;;5044702;28;20529;-62
2022/12/09 06:45:43;;;;;;;167.10;157.50;;;1.60;99.90;;;;;;5044773;28;20381;-61
2022/12/09 06:48:08;;;;;;;163.67;154.07;;;1.70;99.90;;;;;;5047050;28;20393;-62
2022/12/09 06:50:36;;;;;;;154.00;144.98;;;1.70;99.90;;;;;;5045811;28;20400;-62
2022/12/09 06:53:01;;;;;;;169.43;159.32;;;1.80;99.90;;;;;;5045019;28;20389;-63
2022/12/09 06:55:27;;;;;;;162.17;152.37;;;1.80;99.90;;;;;;5044488;28;20481;-63
2022/12/09 06:57:52;;;;;;;169.98;160.35;;;1.80;99.90;;;;;;5046969;28;20450;-63
2022/12/09 07:00:18;;;;;;;158.40;149.13;;;1.90;99.90;;;;;;5043817;28;20433;-63
2022/12/09 07:02:44;;;;;;;158.18;149.18;;;1.90;99.90;;;;;;5043536;28;20397;-63
2022/12/09 07:05:10;;;;;;;156.70;147.77;;;1.90;99.90;;;;;;5044050;28;20450;-63
2022/12/09 07:07:36;;;;;;;170.80;160.85;;;2.00;99.90;;;;;;5043989;28;20394;-63
2022/12/09 07:10:05;;;;;;;181.23;170.75;;;2.00;99.90;;;;;;5040973;28;20616;-63
2022/12/09 07:12:31;;;;;;;181.10;170.48;;;1.90;99.90;;;;;;5038627;28;20378;-62
2022/12/09 07:14:56;;;;;;;171.47;161.67;;;1.80;99.90;;;;;;5039594;28;20874;-63
2022/12/09 07:17:22;;;;;;;189.70;178.77;;;1.90;99.90;;;;;;5037698;28;20779;-62
2022/12/09 07:19:48;;;;;;;167.07;157.05;;;1.80;99.90;;;;;;5035384;28;20389;-62
2022/12/09 07:22:14;;;;;;;168.50;158.87;;;1.80;99.90;;;;;;5036814;28;20401;-62
2022/12/09 07:24:39;;;;;;;174.80;164.68;;;1.80;99.90;;;;;;5036586;28;20385;-62
2022/12/09 07:27:12;;;;;;;175.83;165.93;;;1.80;99.90;;;;;;5036743;28;20854;-62
2022/12/09 07:29:38;;;;;;;171.57;161.47;;;1.70;99.90;;;;;;5038455;28;20649;-62
2022/12/09 07:32:04;;;;;;;182.97;172.27;;;1.80;99.90;;;;;;5037413;28;20401;-63
2022/12/09 07:34:30;;;;;;;186.57;175.93;;;1.70;99.90;;;;;;5037898;28;20405;-63
2022/12/09 07:36:55;;;;;;;158.97;149.47;;;1.60;99.90;;;;;;5038516;28;20451;-63
2022/12/09 07:39:21;;;;;;;164.17;154.30;;;1.60;99.90;;;;;;5039186;28;20705;-62
2022/12/09 07:41:57;;;;;;;166.90;156.83;;;1.60;99.90;;;;;;5039174;28;20431;-61
2022/12/09 07:44:26;;;;;;;172.10;162.10;;;1.70;99.90;;;;;;5040430;28;20445;-63
2022/12/09 07:46:53;;;;;;;158.77;149.60;;;1.60;99.90;;;;;;5039058;28;20503;-62
2022/12/09 07:49:19;;;;;;;169.47;159.17;;;1.70;99.90;;;;;;5037814;28;20393;-64
2022/12/09 07:51:44;;;;;;;166.93;157.00;;;1.70;99.90;;;;;;5034178;28;20483;-63
2022/12/09 07:54:12;;;;;;;164.15;154.43;;;1.70;99.90;;;;;;5034543;28;20413;-62
2022/12/09 07:56:37;;;;;;;158.43;149.10;;;1.70;99.90;;;;;;5035427;28;20514;-63
2022/12/09 07:59:06;;;;;;;167.23;157.03;;;1.70;99.90;;;;;;5033436;28;20530;-62
2022/12/09 08:01:31;;;;;;;152.43;143.40;;;1.70;99.90;;;;;;5035126;28;20409;-62
2022/12/09 08:03:57;;;;;;;159.73;150.20;;;1.80;99.90;;;;;;5034773;28;20475;-62
2022/12/09 08:06:25;;;;;;;163.73;154.45;;;1.80;99.90;;;;;;5037442;28;20396;-63
2022/12/09 08:08:51;;;;;;;157.38;148.43;;;1.90;99.90;;;;;;5037041;28;20797;-63
2022/12/09 08:11:23;;;;;;;163.90;154.68;;;2.00;99.90;;;;;;5035583;28;20381;-64
2022/12/09 08:13:49;;;;;;;163.48;154.13;;;2.10;99.90;;;;;;5034244;28;20513;-64
2022/12/09 08:16:18;;;;;;;174.65;164.77;;;2.10;99.90;;;;;;5035382;28;20397;-63
2022/12/09 08:18:44;;;;;;;174.55;164.50;;;2.10;99.90;;;;;;5033667;28;20387;-63
2022/12/09 08:21:13;;;;;;;183.45;173.15;;;2.10;99.90;;;;;;5033390;28;20804;-63
2022/12/09 08:23:38;;;;;;;179.90;169.60;;;2.10;99.90;;;;;;5033951;28;20423;-63
2022/12/09 08:26:05;;;;;;;175.20;165.27;;;2.10;99.90;;;;;;5034693;28;20445;-63
2022/12/09 08:28:31;;;;;;;185.65;175.25;;;2.10;99.90;;;;;;5033289;28;20488;-64
2022/12/09 08:30:57;;;;;;;190.60;180.13;;;2.10;99.90;;;;;;5033685;28;20512;-62
2022/12/09 08:33:24;;;;;;;196.85;185.98;;;2.00;99.90;;;;;;5033351;28;20600;-64
2022/12/09 08:35:49;;;;;;;181.65;171.30;;;2.00;99.90;;;;;;5033598;28;20408;-61
2022/12/09 08:38:15;;;;;;;169.63;160.38;;;2.00;99.90;;;;;;5037176;28;20688;-63
2022/12/09 08:40:41;;;;;;;163.00;153.70;;;2.00;99.90;;;;;;5045939;28;20637;-62
2022/12/09 08:43:07;;;;;;;184.68;174.48;;;2.00;99.90;;;;;;5047254;28;20745;-61
2022/12/09 08:45:38;;;;;;;178.57;168.65;;;1.90;99.90;;;;;;5047173;28;20812;-60
2022/12/09 08:48:05;;;;;;;171.82;162.40;;;1.90;99.90;;;;;;5047721;28;20382;-63
2022/12/09 08:50:31;;;;;;;177.98;168.20;;;1.90;99.90;;;;;;5048430;28;20389;-62
2022/12/09 08:52:57;;;;;;;172.45;162.95;;;2.00;99.90;;;;;;5047772;28;20393;-62
2022/12/09 08:55:26;;;;;;;189.98;179.63;;;2.10;99.90;;;;;;5047008;28;20507;-62
2022/12/09 08:57:52;;;;;;;187.35;176.98;;;2.10;99.90;;;;;;5045991;28;20404;-63
2022/12/09 09:00:18;;;;;;;183.17;172.83;;;2.10;99.90;;;;;;5045479;28;20398;-62
2022/12/09 09:02:44;;;;;;;195.38;184.77;;;2.10;99.90;;;;;;5044555;28;20384;-62
2022/12/09 09:05:10;;;;;;;185.95;175.73;;;2.10;99.90;;;;;;5044813;28;20393;-61
2022/12/09 09:07:36;;;;;;;172.90;163.35;;;2.10;99.90;;;;;;5045786;28;20785;-62
2022/12/09 09:10:03;;;;;;;182.93;172.90;;;2.20;99.90;;;;;;5045782;28;20382;-62
2022/12/09 09:12:29;;;;;;;182.95;173.10;;;2.20;99.90;;;;;;5045324;28;20413;-62
2022/12/09 09:14:56;;;;;;;176.00;166.40;;;2.30;99.90;;;;;;5045814;28;20421;-62
2022/12/09 09:17:22;;;;;;;184.05;173.98;;;2.30;99.90;;;;;;5044131;28;20487;-63
2022/12/09 09:19:48;;;;;;;190.73;180.40;;;2.20;99.90;;;;;;5041921;28;20386;-62
2022/12/09 09:22:14;;;;;;;189.77;179.27;;;2.20;99.90;;;;;;5040585;28;20440;-62
2022/12/09 09:24:40;;;;;;;176.20;166.52;;;2.20;99.90;;;;;;5042815;28;20431;-63
2022/12/09 09:27:06;;;;;;;191.43;180.75;;;2.30;99.90;;;;;;5042359;28;21028;-63
2022/12/09 09:29:32;;;;;;;180.85;171.05;;;2.20;99.90;;;;;;5043067;28;20393;-63
2022/12/09 09:31:58;;;;;;;180.15;170.23;;;2.20;99.90;;;;;;5043094;28;20401;-62
2022/12/09 09:34:25;;;;;;;166.65;157.30;;;2.30;99.90;;;;;;5044007;28;20781;-63
2022/12/09 09:36:52;;;;;;;180.93;171.18;;;2.40;99.90;;;;;;5045619;28;20699;-63
2022/12/09 09:39:19;;;;;;;182.80;172.98;;;2.50;99.90;;;;;;5045375;28;20470;-62
2022/12/09 09:41:57;;;;;;;188.70;178.45;;;2.50;99.90;;;;;;5044089;28;20451;-62
2022/12/09 09:44:34;;;;;;;178.47;168.83;;;2.40;99.90;;;;;;5046205;28;20396;-62
2022/12/09 09:47:04;;;;;;;184.48;174.30;;;2.40;99.90;;;;;;5046141;28;20936;-62
2022/12/09 09:49:35;;;;;;;193.85;183.30;;;2.50;99.90;;;;;;5045777;28;20392;-62
2022/12/09 09:52:07;;;;;;;189.10;178.88;;;2.50;99.90;;;;;;5044665;28;20394;-63
2022/12/09 09:54:33;;;;;;;181.82;171.93;;;2.40;99.90;;;;;;5040355;28;20389;-64
2022/12/09 09:57:12;;;;;;;197.93;187.52;;;2.50;99.90;;;;;;5041761;28;20396;-63
2022/12/09 09:59:59;;;;;;;188.27;178.20;;;2.60;99.90;;;;;;5041952;28;21043;-63
2022/12/09 10:02:51;;;;;;;204.85;193.88;;;2.60;99.90;;;;;;5037830;28;20852;-62
2022/12/09 10:05:40;;;;;;;206.68;195.52;;;2.60;99.90;;;;;;5037330;28;20393;-63
2022/12/09 10:08:37;;;;;;;190.98;180.80;;;2.60;99.90;;;;;;5034075;28;20671;-63
2022/12/09 10:11:31;;;;;;;210.60;199.40;;;2.60;99.90;;;;;;5030640;28;20402;-63
2022/12/09 10:14:15;;;;;;;209.03;198.03;;;2.60;99.90;;;;;;5042643;28;20468;-63
2022/12/09 10:16:53;;;;;;;207.60;196.55;;;2.60;99.90;;;;;;5044885;28;20472;-63
2022/12/09 10:19:35;;;;;;;211.52;199.98;;;2.70;99.90;;;;;;5046123;28;20477;-58
2022/12/09 10:22:22;;;;;;;187.65;176.43;;;2.60;99.90;;;;;;5044787;28;20440;-57
2022/12/09 10:24:50;;;;;;;188.23;177.13;;;3.00;99.90;;;;;;5035184;28;20781;-62
2022/12/09 10:27:29;;;;;;;190.55;180.13;;;3.00;99.90;;;;;;5028921;28;20373;-63
2022/12/09 10:29:57;;;;;;;214.00;202.63;;;3.00;99.90;;;;;;5035862;28;20439;-62
2022/12/09 10:32:30;;;;;;;224.90;213.07;;;2.90;99.90;;;;;;5036821;28;20401;-63
2022/12/09 10:34:56;;;;;;;195.95;185.43;;;2.80;99.90;;;;;;5038419;28;20384;-63
2022/12/09 10:37:34;;;;;;;212.10;200.65;;;2.80;99.90;;;;;;5039714;28;20382;-63
2022/12/09 10:40:06;;;;;;;222.32;210.75;;;2.80;99.90;;;;;;5044423;28;20403;-64
2022/12/09 10:45:27;;;;;;;210.90;199.68;;;2.90;99.90;;;;;;5045356;28;20377;-63
2022/12/09 10:47:52;;;;;;;204.97;193.97;;;3.00;99.90;;;;;;5046910;28;20917;-63
2022/12/09 10:50:34;;;;;;;230.33;218.30;;;3.00;99.90;;;;;;5047520;28;20385;-63
2022/12/09 10:53:20;;;;;;;242.25;229.77;;;3.00;99.90;;;;;;5045914;28;20650;-64
2022/12/09 10:55:50;;;;;;;227.68;216.00;;;3.00;99.90;;;;;;5042916;28;20382;-63
2022/12/09 10:58:22;;;;;;;238.55;226.27;;;3.00;99.90;;;;;;5044433;28;20392;-63
2022/12/09 11:01:08;;;;;;;244.65;231.95;;;3.10;99.90;;;;;;5043072;28;20444;-63
2022/12/09 11:03:53;;;;;;;257.10;243.85;;;3.10;99.90;;;;;;5043607;28;20378;-63
2022/12/09 11:06:27;;;;;;;234.57;222.60;;;3.00;99.90;;;;;;5038864;28;20409;-64
2022/12/09 11:08:55;;;;;;;237.50;225.30;;;3.10;99.90;;;;;;5042346;28;20451;-63
2022/12/09 11:11:46;;;;;;;246.20;233.43;;;3.30;99.90;;;;;;5041301;28;20417;-63
2022/12/09 11:14:37;;;;;;;247.90;235.27;;;3.30;99.90;;;;;;5039517;28;20472;-63
2022/12/09 11:17:20;;;;;;;242.40;229.73;;;3.30;99.90;;;;;;5036075;28;21030;-63
2022/12/09 11:20:06;;;;;;;235.18;223.10;;;3.20;99.90;;;;;;5038793;28;20381;-63
2022/12/09 11:22:37;;;;;;;228.13;216.17;;;3.30;99.90;;;;;;5038531;28;20521;-64
2022/12/09 11:25:24;;;;;;;238.40;226.27;;;3.30;99.90;;;;;;5039927;28;20385;-63
2022/12/09 11:28:04;;;;;;;221.47;209.87;;;3.30;99.90;;;;;;5043419;28;20381;-63
2022/12/09 11:31:01;;;;;;;229.80;217.75;;;3.50;99.90;;;;;;5043243;28;20389;-63
2022/12/09 11:33:36;;;;;;;236.23;223.55;;;3.60;99.90;;;;;;5041896;28;21040;-63
2022/12/09 11:36:16;;;;;;;231.30;219.30;;;3.50;99.90;;;;;;5041431;28;20479;-63
2022/12/09 11:38:45;;;;;;;229.85;217.77;;;3.50;99.90;;;;;;5040832;28;20396;-63
2022/12/09 11:41:10;;;;;;;226.00;213.90;;;3.40;99.90;;;;;;5039965;28;20405;-64
2022/12/09 11:43:44;;;;;;;220.43;208.70;;;3.30;99.90;;;;;;5040715;28;20443;-63
2022/12/09 11:46:13;;;;;;;217.43;206.30;;;3.20;99.90;;;;;;5038516;28;20478;-63
2022/12/09 11:49:04;;;;;;;219.35;207.75;;;3.10;99.90;;;;;;5038496;28;20897;-63
2022/12/09 11:51:36;;;;;;;222.05;210.43;;;3.20;99.90;;;;;;5040018;28;20451;-62
2022/12/09 11:54:24;;;;;;;224.57;212.98;;;3.00;99.90;;;;;;5041354;28;20801;-62
2022/12/09 11:56:51;;;;;;;211.65;200.70;;;3.10;99.90;;;;;;5041580;28;20401;-65
2022/12/09 11:59:39;;;;;;;218.73;206.98;;;3.20;99.90;;;;;;5041589;28;20484;-62
2022/12/09 12:02:19;;;;;;;214.02;202.85;;;3.10;99.90;;;;;;5040932;28;20499;-65
2022/12/09 12:05:11;;;;;;;226.52;214.57;;;3.00;99.90;;;;;;5040417;28;20381;-64
2022/12/09 12:07:47;;;;;;;226.93;215.18;;;3.10;99.90;;;;;;5032021;28;20385;-63
2022/12/09 12:10:30;;;;;;;219.88;208.48;;;3.20;99.90;;;;;;5034176;28;20474;-62
2022/12/09 12:13:08;;;;;;;229.67;217.87;;;3.30;99.90;;;;;;5035594;28;20486;-63
2022/12/09 12:15:57;;;;;;;232.05;220.07;;;3.50;99.90;;;;;;5039101;28;20450;-63
2022/12/09 12:18:25;;;;;;;222.82;211.27;;;3.60;99.90;;;;;;5040520;28;20385;-64
2022/12/09 12:21:14;;;;;;;210.32;199.18;;;3.60;99.90;;;;;;5042250;28;20495;-64
2022/12/09 12:24:19;;;;;;;214.20;202.80;;;3.50;99.90;;;;;;5041200;28;21059;-64
2022/12/09 12:27:12;;;;;;;236.13;224.05;;;3.50;99.90;;;;;;5041001;28;20385;-64
2022/12/09 12:29:47;;;;;;;214.23;202.75;;;3.70;99.90;;;;;;5042454;28;20535;-64
2022/12/09 12:32:47;;;;;;;222.05;210.18;;;3.70;99.90;;;;;;5043301;28;20919;-62
2022/12/09 12:35:39;;;;;;;223.88;212.15;;;3.90;99.90;;;;;;5046776;28;20381;-63
2022/12/09 12:38:20;;;;;;;218.00;206.50;;;3.90;99.90;;;;;;5045532;28;20381;-63